NCAR-RAP Real-Time Weather Data

Output produced by METARs form (06 May 2021  15:21 UTC)
found at http://weather.rap.ucar.edu/surface/
 
KMOT 061454Z 25015G22KT 10SM FEW120 13/M07 A3020 RMK AO2 SLP235 T01331067 58004
KMOT 061354Z 24014KT 10SM CLR 12/M08 A3020 RMK AO2 SLP236 T01171078
KMOT 061254Z 22010KT 10SM CLR 08/M07 A3021 RMK AO2 SLP237 T00831072
KMOT 061154Z AUTO 22011KT 10SM CLR 06/M07 A3021 RMK AO2 SLP240 T00561072 10056 20033 56005
KMOT 061054Z AUTO 23010KT 10SM CLR 05/M08 A3021 RMK AO2 SLP240 T00501078
KMOT 060954Z AUTO 22010KT 10SM CLR 04/M08 A3022 RMK AO2 SLP242 T00441078
KMOT 060854Z AUTO 23009KT 10SM CLR 04/M08 A3023 RMK AO2 SLP245 T00441083 58000
KMOT 060754Z AUTO 23010KT 10SM CLR 04/M08 A3023 RMK AO2 SLP248 T00441083
KMOT 060654Z AUTO 22009KT 10SM CLR 03/M09 A3023 RMK AO2 SLP251 T00331089
KMOT 060554Z AUTO 22007KT 10SM CLR 04/M09 A3023 RMK AO2 SLP246 T00391089 10144 20033 401670033 51005
KMOT 060454Z AUTO 22007KT 10SM CLR 05/M08 A3022 RMK AO2 SLP245 T00501083
KMOT 060354Z AUTO 00000KT 10SM CLR 06/M11 A3022 RMK AO2 SLP245 T00611106
KMOT 060254Z 33003KT 10SM CLR 05/M11 A3021 RMK AO2 SLP244 T00501106 53013
KMOT 060154Z 35007KT 10SM CLR 09/M11 A3019 RMK AO2 SLP234 T00891106
KMOT 060054Z 36013KT 10SM CLR 13/M11 A3017 RMK AO2 SLP226 T01331111